Terminal Aerodrome Forecast
Issued by NWS Wilmington, OH

Current Version | Previous Version | Text Only | Print | Product List | Glossary Off
Versions: 1 2 3 4 5 6 7 8 9 10 11 12 13 14 15 16 17 18 19 20 21 22 23 24 25 26 27 28 29 30 31 32 33 34

000
FTUS41 KILN 202300
TAFCVG
TAF
KCVG 202338Z 2100/2206 23005KT P6SM SCT150 BKN250
     FM211000 22004KT 5SM -SHRA BR VCTS BKN050CB
     FM211500 23007KT P6SM SCT035 BKN150
      TEMPO 2118/2121 -SHRA
     FM220000 22004KT P6SM VCSH FEW040 BKN150=

USA.gov is the U.S. government's official web portal to all federal, state and local government web resources and services.